Aktualne dane pomiarowe

Uwaga, wersja testowa! Automatyczne pobieranie danych za pomocą narzędzi lub skryptów to umożliwiających jest zabronione.

Dane meteo z obszaru Polski uzyskane na podstawie depesz SYNOP pobieranych co godzinę z NWS. Najedź myszką na symbol przedstawiony w tabeli, aby uzyskać informacje co do jego znaczenia. Prosimy pamiętać, że to testowa wersja strony, która jeszcze nie jest ukończona. Stworzono również jest krótki FAQ dotyczący korzystania z tej podstrony Anomalie temperatury w chwili obecnej odniesione są do okresu referencyjnego 1951-2016. Okres ten będzie później zmieniony na 1981-2010. Kliknij ikonę aby pobrać plik CSV. Kliknij ikonę aby wygenerować mapę synoptyczną dla danego terminu.

Wybierz Datę:    

        

Kasprowy Wierch (12650)

Dane terminowe dla wybranej stacji. Kliknij datę, aby otrzymać dane z tego terminu dla wszystkich stacji.

TemperaturaZachmurzenieWiatrCiśnienieOpadyPogoda
 Data t td wb tx tn tg rh  Nt Nl Cl Cm Ch ws wd g1 g2 wx mslp ppp ch 24h 12h t ww ww w1 w2  
2019-07-12 23:00:00 5.1 2.1 3.3--- 8130.0wxwxwxwx3wx--3- 797.6 -0.3---------
2019-07-12 22:00:00 5.2 2.2 3.4--- 8130.0wxwxwxwx4wx---- 797.6 -0.2---------
2019-07-12 21:00:00 5.2 3.4 4.0--- 8830.0wxwxwxwx6wx--6- 797.6 -0.2---------
2019-07-12 20:00:00 5.2 4.2 4.5--- 9330.0wxwxwxwx3wx--3- 797.9 0.1---------
2019-07-12 19:00:00 4.7 4.6 4.5--- 9910.0wxwxwxwx5wx--5- 797.8 -0.1---------
2019-07-12 18:00:00 5.3 4.3 4.6 10.0 4.6- 9310.0wxwxwxwx5wx--5- 797.8 -0.3- 0.012------
2019-07-12 17:00:00 6.0 4.2 4.8--- 8850.0wxwxwxwx4wx--4- 797.8 -0.6---------
2019-07-12 16:00:00 6.5 3.6 4.7--- 8250.0wxwxwxwx2wx--2- 797.9 -0.5---------
2019-07-12 15:00:00 7.1 2.4 4.4--- 7250.0wxwxwx2wx--2- 798.1 -0.4---------
2019-07-12 14:00:00 8.6 1.7 4.9--- 6250.0wxwxwxwx1wx--1- 798.4 -0.2---------
2019-07-12 13:00:00 9.4 1.8 5.4--- 5950.0wxwxwxwx1wx--1- 798.4 -0.4---------
2019-07-12 12:00:00 9.5 1.1 5.2--- 5650.0wxwxwxwxwx2wx--2- 798.5 -0.3- 0.06------
2019-07-12 11:00:00 8.6 1.0 4.7--- 5950.0wxwxwx2wx--2- 798.6 0.0---------
2019-07-12 10:00:00 8.0 1.6 4.6--- 6450.0wxwxwxwxwx2wx--2- 798.8 0.3---------
2019-07-12 09:00:00 7.4 0.4 3.8--- 6150.0wxwxwxwx2wx---- 798.8 0.5---------
2019-07-12 08:00:00 6.9 -0.1 3.3--- 6150.0wxwxwxwxwx3wx--3- 798.6 0.6---------
2019-07-12 07:00:00 5.9 -0.8 2.5--- 6250.0wxwxwxwxwx5wx--5- 798.5 0.6---------
2019-07-12 06:00:00 4.6 -0.2 2.0 4.6 1.7- 7150.0wxwxwxwxwx5wx--5- 798.3 0.5 5.0 0.012----- 0.3
2019-07-12 05:00:00 3.6 -0.2 1.5--- 7650.0wxwxwxwxwx6wx---- 798.0 0.1---------
2019-07-12 04:00:00 2.7 0.1 1.2--- 8350.0wxwxwxwxwx7wx--7- 797.9 0.0---------
2019-07-12 03:00:00 1.9 0.9 1.2--- 9350.0wx-wxwx6wx--6- 797.8 -0.3---------
2019-07-12 02:00:00 2.0 0.7 1.1--- 9150.0wx-6wx--6- 797.9 -0.5---------
2019-07-12 01:00:00 1.8 0.8 1.1--- 9350.0wx-7wx--7- 797.9 -0.5---------
2019-07-12 00:00:00 2.0 0.8 1.2--- 9250.0wx-7wx--7- 798.1 -0.3- 0.06------
2019-07-11 23:00:00 2.0 1.1 1.3--- 9450.0wxwxwx6wx--6- 798.4 -0.1---------
2019-07-11 22:00:00 2.0 1.1 1.3--- 9450.0wxwxwxwx8wx--8- 798.4 0.4---------
2019-07-11 21:00:00 1.8 1.8 1.7--- 10050.0wxwxwxwx7wx--7- 798.4 1.0---wx-w1--
2019-07-11 20:00:00 1.9 1.9 1.8--- 10040.0wxwxwxwx5wx--5- 798.5 1.2---wx---
2019-07-11 19:00:00 2.4 2.4 2.3--- 1000.1wxwxwx6wx--6- 798.0 0.8---wx-w1w2--
2019-07-11 18:00:00 2.9 2.9 2.8 3.9 0.1- 1000.1wx-8wx-158- 797.4 0.2- 5.012wx-w1w2--
2019-07-11 17:00:00 3.2 3.2 3.1--- 1000.1wx-8wx-118- 797.3 0.2---wx-w1w2--
2019-07-11 16:00:00 3.2 3.2 3.1--- 1000.1wx-7wx--7- 797.2 0.2---wx-w1w2--
2019-07-11 15:00:00 3.2 3.2 3.1--- 1000.1wx-6wx-156- 797.2 0.3---wx-w1w2--
2019-07-11 14:00:00 2.7 2.7 2.6--- 1000.1wx-6wx11156- 797.1 0.3---wx-w1w2--
2019-07-11 13:00:00 2.7 2.7 2.6--- 1000.1wxwxwx4wx9104- 797.0 0.2---wx-w1w2--
2019-07-11 12:00:00 0.4 0.4 0.3--- 1000.1wx-7wx13167- 796.9 0.0- 4.06wx-w1w2--
2019-07-11 11:00:00 1.9 1.9 1.8--- 1000.1wx-5wx-165- 796.8 0.1---wx-w1w2--
2019-07-11 10:00:00 1.8 1.8 1.7--- 1000.1wx-10wx151510- 796.8 -0.1---wx-w1w2--
2019-07-11 09:00:00 1.4 1.4 1.3--- 1000.1wx-4wx9134- 796.9 0.1---wx-w1w2--
2019-07-11 08:00:00 1.9 1.9 1.8--- 1000.1wxwxwx7wx12127- 796.7 0.0---wx-w1--
2019-07-11 07:00:00 2.0 2.0 1.9--- 10030.0wxwxwxwx5wx---- 796.9 0.1---wx-w1--
2019-07-11 06:00:00 1.7 1.7 1.6 2.3 0.8- 1000.1wx-6wx11116- 796.8 -0.2 1.0 0.512wx-w1w2- 0.6
2019-07-11 05:00:00 1.6 1.6 1.5--- 1000.1wx-4wx--4- 796.7 -0.5---wx-w1w2--
2019-07-11 04:00:00 1.5 1.5 1.4--- 1000.1wx-4wx--4- 796.8 -0.9---wx-w1w2--
2019-07-11 03:00:00 1.6 1.6 1.5--- 1000.1wx-4wx--4- 797.0 -1.0---wx-w1w2--
2019-07-11 02:00:00 1.4 1.4 1.3--- 1000.1wx-3wx--3- 797.2 -1.0---wx-w1w2--
2019-07-11 01:00:00 1.3 1.3 1.2--- 1000.1wx-3wx--3- 797.7 -0.8---wx-w1w2--
2019-07-11 00:00:00 1.6 1.6 1.5--- 1000.1wx-4wx-124- 798.0 -0.7- 0.16wx-w1w2--
2.0 ms

 

Print Friendly, PDF & Email